Terminal Aerodrome Forecast
Issued by NWS

Home | Current Version | Previous Version | Text Only | Print | Product List | Glossary On
Versions: 1 2 3 4 5 6 7 8 9 10 11 12 13 14 15 16 17 18 19 20 21 22 23 24 25 26 27 28
000
FTUS41 KOKX 232300
TAFTEB
TAF
KTEB 232331Z 2400/2424 32017G27KT P6SM SCT040
     FM240100 32014G22KT P6SM SKC
     FM241400 33021G32KT P6SM SKC
     FM242200 33016G23KT P6SM SKC=

USA.gov is the U.S. government's official web portal to all federal, state and local government web resources and services.